Terminal Aerodrome Forecast
Issued by NWS

Home | Current Version | Previous Version | Text Only | Print | Product List | Glossary On
Versions: 1 2 3 4 5 6 7 8 9 10 11 12 13 14 15 16 17
000
FTUS46 KSEW 221100
TAFHQM
TAF
KHQM 221130Z 2212/2312 29006KT P6SM OVC004
     FM221600 29006KT P6SM OVC008
     FM221800 29006KT P6SM BKN011
     FM222000 29010KT P6SM SCT250
     FM230900 29006KT P6SM OVC004=

USA.gov is the U.S. government's official web portal to all federal, state and local government web resources and services.